sensor_id;sensor_type;location;lat;lon;timestamp;P1;durP1;ratioP1;P2;durP2;ratioP2
76689;SDS011;70102;44.506;0.220;2023-06-22T00:00:19;12.37;;;6.83;;
76689;SDS011;70102;44.506;0.220;2023-06-22T00:05:52;18.33;;;7.57;;
76689;SDS011;70102;44.506;0.220;2023-06-22T00:11:23;16.97;;;7.40;;
76689;SDS011;70102;44.506;0.220;2023-06-22T00:16:55;17.63;;;7.30;;
76689;SDS011;70102;44.506;0.220;2023-06-22T00:22:28;10.80;;;6.37;;
76689;SDS011;70102;44.506;0.220;2023-06-22T00:28:01;10.03;;;5.77;;
76689;SDS011;70102;44.506;0.220;2023-06-22T00:33:32;13.50;;;6.50;;
76689;SDS011;70102;44.506;0.220;2023-06-22T00:39:05;14.47;;;5.97;;
76689;SDS011;70102;44.506;0.220;2023-06-22T00:44:38;12.03;;;6.73;;
76689;SDS011;70102;44.506;0.220;2023-06-22T00:50:10;7.83;;;6.53;;
76689;SDS011;70102;44.506;0.220;2023-06-22T00:55:43;8.17;;;5.10;;
76689;SDS011;70102;44.506;0.220;2023-06-22T01:01:16;6.13;;;4.60;;
76689;SDS011;70102;44.506;0.220;2023-06-22T01:06:51;4.20;;;2.40;;
76689;SDS011;70102;44.506;0.220;2023-06-22T01:12:23;2.70;;;2.50;;
76689;SDS011;70102;44.506;0.220;2023-06-22T01:17:56;2.37;;;1.33;;
76689;SDS011;70102;44.506;0.220;2023-06-22T01:23:33;1.70;;;1.60;;
76689;SDS011;70102;44.506;0.220;2023-06-22T01:29:03;1.43;;;1.20;;
76689;SDS011;70102;44.506;0.220;2023-06-22T01:34:36;1.27;;;1.10;;
76689;SDS011;70102;44.506;0.220;2023-06-22T01:40:09;1.33;;;1.20;;
76689;SDS011;70102;44.506;0.220;2023-06-22T01:45:43;0.80;;;0.77;;
76689;SDS011;70102;44.506;0.220;2023-06-22T01:51:16;0.70;;;0.70;;
76689;SDS011;70102;44.506;0.220;2023-06-22T01:56:48;1.43;;;0.97;;
76689;SDS011;70102;44.506;0.220;2023-06-22T02:02:21;3.30;;;0.90;;
76689;SDS011;70102;44.506;0.220;2023-06-22T02:08:00;1.00;;;0.87;;
76689;SDS011;70102;44.506;0.220;2023-06-22T02:13:26;2.97;;;1.23;;
76689;SDS011;70102;44.506;0.220;2023-06-22T02:18:58;1.90;;;0.73;;
76689;SDS011;70102;44.506;0.220;2023-06-22T02:24:32;1.80;;;1.10;;
76689;SDS011;70102;44.506;0.220;2023-06-22T02:30:05;1.80;;;1.00;;
76689;SDS011;70102;44.506;0.220;2023-06-22T02:35:38;1.20;;;1.10;;
76689;SDS011;70102;44.506;0.220;2023-06-22T02:41:10;2.03;;;1.23;;
76689;SDS011;70102;44.506;0.220;2023-06-22T02:46:43;4.17;;;1.37;;
76689;SDS011;70102;44.506;0.220;2023-06-22T02:52:15;1.60;;;1.43;;
76689;SDS011;70102;44.506;0.220;2023-06-22T02:57:49;4.00;;;1.27;;
76689;SDS011;70102;44.506;0.220;2023-06-22T03:03:22;3.43;;;1.10;;
76689;SDS011;70102;44.506;0.220;2023-06-22T03:08:57;1.27;;;1.17;;
76689;SDS011;70102;44.506;0.220;2023-06-22T03:14:26;1.93;;;1.40;;
76689;SDS011;70102;44.506;0.220;2023-06-22T03:19:58;1.80;;;1.60;;
76689;SDS011;70102;44.506;0.220;2023-06-22T03:25:30;2.80;;;1.43;;
76689;SDS011;70102;44.506;0.220;2023-06-22T03:31:03;3.50;;;1.63;;
76689;SDS011;70102;44.506;0.220;2023-06-22T03:36:40;7.33;;;1.40;;
76689;SDS011;70102;44.506;0.220;2023-06-22T03:42:11;1.97;;;1.73;;
76689;SDS011;70102;44.506;0.220;2023-06-22T03:47:43;3.20;;;2.00;;
76689;SDS011;70102;44.506;0.220;2023-06-22T03:53:15;6.10;;;1.90;;
76689;SDS011;70102;44.506;0.220;2023-06-22T03:58:48;3.77;;;1.97;;
76689;SDS011;70102;44.506;0.220;2023-06-22T04:04:21;3.13;;;2.17;;
76689;SDS011;70102;44.506;0.220;2023-06-22T04:09:53;5.53;;;1.80;;
76689;SDS011;70102;44.506;0.220;2023-06-22T04:15:26;2.93;;;1.70;;
76689;SDS011;70102;44.506;0.220;2023-06-22T04:20:59;4.23;;;2.07;;
76689;SDS011;70102;44.506;0.220;2023-06-22T04:26:33;8.53;;;2.57;;
76689;SDS011;70102;44.506;0.220;2023-06-22T04:32:06;3.50;;;2.73;;
76689;SDS011;70102;44.506;0.220;2023-06-22T04:37:37;3.60;;;2.40;;
76689;SDS011;70102;44.506;0.220;2023-06-22T04:43:11;5.53;;;2.50;;
76689;SDS011;70102;44.506;0.220;2023-06-22T04:48:44;4.57;;;2.90;;
76689;SDS011;70102;44.506;0.220;2023-06-22T04:54:17;11.00;;;2.80;;
76689;SDS011;70102;44.506;0.220;2023-06-22T04:59:51;3.50;;;2.47;;
76689;SDS011;70102;44.506;0.220;2023-06-22T05:05:23;6.80;;;2.73;;
76689;SDS011;70102;44.506;0.220;2023-06-22T05:10:56;5.03;;;2.50;;
76689;SDS011;70102;44.506;0.220;2023-06-22T05:16:30;5.47;;;2.90;;
76689;SDS011;70102;44.506;0.220;2023-06-22T05:22:01;3.57;;;2.70;;
76689;SDS011;70102;44.506;0.220;2023-06-22T05:27:35;5.40;;;2.70;;
76689;SDS011;70102;44.506;0.220;2023-06-22T05:33:07;6.63;;;2.57;;
76689;SDS011;70102;44.506;0.220;2023-06-22T05:38:40;5.00;;;2.23;;
76689;SDS011;70102;44.506;0.220;2023-06-22T05:44:13;3.60;;;2.63;;
76689;SDS011;70102;44.506;0.220;2023-06-22T05:49:45;6.37;;;2.67;;
76689;SDS011;70102;44.506;0.220;2023-06-22T05:55:18;7.37;;;2.87;;
76689;SDS011;70102;44.506;0.220;2023-06-22T06:00:52;6.27;;;2.63;;
76689;SDS011;70102;44.506;0.220;2023-06-22T06:06:25;3.47;;;2.60;;
76689;SDS011;70102;44.506;0.220;2023-06-22T06:12:00;3.27;;;2.50;;
76689;SDS011;70102;44.506;0.220;2023-06-22T06:17:32;5.97;;;3.17;;
76689;SDS011;70102;44.506;0.220;2023-06-22T06:23:04;6.73;;;2.80;;
76689;SDS011;70102;44.506;0.220;2023-06-22T06:28:38;4.33;;;2.70;;
76689;SDS011;70102;44.506;0.220;2023-06-22T06:34:11;3.60;;;2.63;;
76689;SDS011;70102;44.506;0.220;2023-06-22T06:39:45;4.10;;;2.90;;
76689;SDS011;70102;44.506;0.220;2023-06-22T06:45:19;3.10;;;2.40;;
76689;SDS011;70102;44.506;0.220;2023-06-22T06:50:50;3.83;;;2.63;;
76689;SDS011;70102;44.506;0.220;2023-06-22T06:56:22;3.83;;;2.60;;
76689;SDS011;70102;44.506;0.220;2023-06-22T07:01:55;4.40;;;2.57;;
76689;SDS011;70102;44.506;0.220;2023-06-22T07:07:28;7.60;;;3.17;;
76689;SDS011;70102;44.506;0.220;2023-06-22T07:13:00;3.47;;;3.00;;
76689;SDS011;70102;44.506;0.220;2023-06-22T07:18:33;4.10;;;3.00;;
76689;SDS011;70102;44.506;0.220;2023-06-22T07:24:07;3.27;;;2.90;;
76689;SDS011;70102;44.506;0.220;2023-06-22T07:29:39;5.67;;;3.57;;
76689;SDS011;70102;44.506;0.220;2023-06-22T07:35:13;4.97;;;3.50;;
76689;SDS011;70102;44.506;0.220;2023-06-22T07:40:46;4.47;;;2.97;;
76689;SDS011;70102;44.506;0.220;2023-06-22T07:46:19;5.43;;;3.17;;
76689;SDS011;70102;44.506;0.220;2023-06-22T07:51:53;11.53;;;4.73;;
76689;SDS011;70102;44.506;0.220;2023-06-22T07:57:26;7.23;;;3.33;;
76689;SDS011;70102;44.506;0.220;2023-06-22T08:02:59;5.93;;;3.83;;
76689;SDS011;70102;44.506;0.220;2023-06-22T08:08:31;6.33;;;3.63;;
76689;SDS011;70102;44.506;0.220;2023-06-22T08:14:05;8.40;;;4.23;;
76689;SDS011;70102;44.506;0.220;2023-06-22T08:19:37;6.30;;;4.13;;
76689;SDS011;70102;44.506;0.220;2023-06-22T08:25:10;8.03;;;4.17;;
76689;SDS011;70102;44.506;0.220;2023-06-22T08:30:43;6.20;;;4.07;;
76689;SDS011;70102;44.506;0.220;2023-06-22T08:36:16;8.17;;;3.83;;
76689;SDS011;70102;44.506;0.220;2023-06-22T08:41:49;7.43;;;3.83;;
76689;SDS011;70102;44.506;0.220;2023-06-22T08:47:21;5.10;;;3.17;;
76689;SDS011;70102;44.506;0.220;2023-06-22T08:52:54;6.17;;;5.03;;
76689;SDS011;70102;44.506;0.220;2023-06-22T08:58:27;6.23;;;4.13;;
76689;SDS011;70102;44.506;0.220;2023-06-22T09:04:00;5.03;;;3.27;;
76689;SDS011;70102;44.506;0.220;2023-06-22T09:09:33;5.23;;;3.63;;
76689;SDS011;70102;44.506;0.220;2023-06-22T09:15:07;3.60;;;3.00;;
76689;SDS011;70102;44.506;0.220;2023-06-22T09:20:40;4.17;;;3.27;;
76689;SDS011;70102;44.506;0.220;2023-06-22T09:26:13;6.57;;;4.33;;
76689;SDS011;70102;44.506;0.220;2023-06-22T09:31:47;5.17;;;3.60;;
76689;SDS011;70102;44.506;0.220;2023-06-22T09:37:19;6.63;;;3.40;;
76689;SDS011;70102;44.506;0.220;2023-06-22T09:42:52;6.60;;;4.00;;
76689;SDS011;70102;44.506;0.220;2023-06-22T09:48:27;6.43;;;3.57;;
76689;SDS011;70102;44.506;0.220;2023-06-22T09:53:58;4.23;;;3.77;;
76689;SDS011;70102;44.506;0.220;2023-06-22T09:59:31;7.30;;;3.07;;
76689;SDS011;70102;44.506;0.220;2023-06-22T10:05:04;5.93;;;3.50;;
76689;SDS011;70102;44.506;0.220;2023-06-22T10:10:37;3.77;;;2.60;;
76689;SDS011;70102;44.506;0.220;2023-06-22T10:16:10;3.27;;;2.97;;
76689;SDS011;70102;44.506;0.220;2023-06-22T10:21:42;4.03;;;2.83;;
76689;SDS011;70102;44.506;0.220;2023-06-22T10:27:16;3.50;;;2.80;;
76689;SDS011;70102;44.506;0.220;2023-06-22T10:32:48;5.60;;;2.93;;
76689;SDS011;70102;44.506;0.220;2023-06-22T10:38:21;4.80;;;2.83;;
76689;SDS011;70102;44.506;0.220;2023-06-22T10:43:53;7.13;;;2.93;;
76689;SDS011;70102;44.506;0.220;2023-06-22T10:49:26;3.57;;;2.80;;
76689;SDS011;70102;44.506;0.220;2023-06-22T10:54:59;5.00;;;2.50;;
76689;SDS011;70102;44.506;0.220;2023-06-22T11:00:33;5.17;;;2.73;;
76689;SDS011;70102;44.506;0.220;2023-06-22T11:06:07;4.60;;;2.90;;
76689;SDS011;70102;44.506;0.220;2023-06-22T11:11:39;4.07;;;2.83;;
76689;SDS011;70102;44.506;0.220;2023-06-22T11:17:13;6.13;;;2.80;;
76689;SDS011;70102;44.506;0.220;2023-06-22T11:22:45;3.80;;;2.47;;
76689;SDS011;70102;44.506;0.220;2023-06-22T11:28:18;5.37;;;2.97;;
76689;SDS011;70102;44.506;0.220;2023-06-22T11:33:51;4.83;;;2.90;;
76689;SDS011;70102;44.506;0.220;2023-06-22T11:39:24;3.13;;;2.83;;
76689;SDS011;70102;44.506;0.220;2023-06-22T11:44:56;2.60;;;2.20;;
76689;SDS011;70102;44.506;0.220;2023-06-22T11:50:29;3.53;;;2.20;;
76689;SDS011;70102;44.506;0.220;2023-06-22T11:56:01;3.77;;;2.30;;
76689;SDS011;70102;44.506;0.220;2023-06-22T12:01:34;3.73;;;2.60;;
76689;SDS011;70102;44.506;0.220;2023-06-22T12:07:08;2.57;;;1.90;;
76689;SDS011;70102;44.506;0.220;2023-06-22T12:12:41;4.00;;;2.27;;
76689;SDS011;70102;44.506;0.220;2023-06-22T12:18:14;2.63;;;2.37;;
76689;SDS011;70102;44.506;0.220;2023-06-22T12:23:47;4.47;;;2.03;;
76689;SDS011;70102;44.506;0.220;2023-06-22T12:29:22;4.73;;;2.87;;
76689;SDS011;70102;44.506;0.220;2023-06-22T12:34:54;5.83;;;2.20;;
76689;SDS011;70102;44.506;0.220;2023-06-22T12:40:25;2.47;;;1.90;;
76689;SDS011;70102;44.506;0.220;2023-06-22T12:45:59;5.00;;;2.13;;
76689;SDS011;70102;44.506;0.220;2023-06-22T12:51:32;2.90;;;2.10;;
76689;SDS011;70102;44.506;0.220;2023-06-22T12:57:05;2.20;;;1.90;;
76689;SDS011;70102;44.506;0.220;2023-06-22T13:02:38;2.37;;;1.73;;
76689;SDS011;70102;44.506;0.220;2023-06-22T13:08:11;3.17;;;2.23;;
76689;SDS011;70102;44.506;0.220;2023-06-22T13:13:43;2.83;;;2.10;;
76689;SDS011;70102;44.506;0.220;2023-06-22T13:19:16;2.67;;;2.03;;
76689;SDS011;70102;44.506;0.220;2023-06-22T13:24:48;3.20;;;2.17;;
76689;SDS011;70102;44.506;0.220;2023-06-22T13:30:21;2.00;;;1.67;;
76689;SDS011;70102;44.506;0.220;2023-06-22T13:35:54;4.23;;;2.07;;
76689;SDS011;70102;44.506;0.220;2023-06-22T13:41:27;5.20;;;2.83;;
76689;SDS011;70102;44.506;0.220;2023-06-22T13:47:00;2.67;;;2.47;;
76689;SDS011;70102;44.506;0.220;2023-06-22T13:52:33;3.10;;;1.93;;
76689;SDS011;70102;44.506;0.220;2023-06-22T13:58:06;3.43;;;2.30;;
76689;SDS011;70102;44.506;0.220;2023-06-22T14:03:38;3.70;;;2.10;;
76689;SDS011;70102;44.506;0.220;2023-06-22T14:09:11;9.17;;;2.50;;
76689;SDS011;70102;44.506;0.220;2023-06-22T14:14:43;4.87;;;2.37;;
76689;SDS011;70102;44.506;0.220;2023-06-22T14:20:15;2.37;;;2.00;;
76689;SDS011;70102;44.506;0.220;2023-06-22T14:25:48;4.40;;;1.80;;
76689;SDS011;70102;44.506;0.220;2023-06-22T14:31:21;5.40;;;2.40;;
76689;SDS011;70102;44.506;0.220;2023-06-22T14:36:54;3.87;;;2.20;;
76689;SDS011;70102;44.506;0.220;2023-06-22T14:42:27;4.33;;;2.30;;
76689;SDS011;70102;44.506;0.220;2023-06-22T14:47:59;5.13;;;2.57;;
76689;SDS011;70102;44.506;0.220;2023-06-22T14:53:33;7.97;;;3.17;;
76689;SDS011;70102;44.506;0.220;2023-06-22T14:59:05;3.63;;;1.90;;
76689;SDS011;70102;44.506;0.220;2023-06-22T15:04:40;2.43;;;1.40;;
76689;SDS011;70102;44.506;0.220;2023-06-22T15:10:11;2.20;;;1.60;;
76689;SDS011;70102;44.506;0.220;2023-06-22T15:15:46;2.33;;;1.80;;
76689;SDS011;70102;44.506;0.220;2023-06-22T15:21:18;2.47;;;2.00;;
76689;SDS011;70102;44.506;0.220;2023-06-22T15:26:52;7.07;;;2.20;;
76689;SDS011;70102;44.506;0.220;2023-06-22T15:32:25;3.87;;;2.37;;
76689;SDS011;70102;44.506;0.220;2023-06-22T15:37:58;7.50;;;4.10;;
76689;SDS011;70102;44.506;0.220;2023-06-22T15:43:30;3.20;;;2.83;;
76689;SDS011;70102;44.506;0.220;2023-06-22T15:49:03;3.70;;;2.87;;
76689;SDS011;70102;44.506;0.220;2023-06-22T15:54:41;4.80;;;2.87;;
76689;SDS011;70102;44.506;0.220;2023-06-22T16:00:09;5.70;;;3.00;;
76689;SDS011;70102;44.506;0.220;2023-06-22T16:05:42;4.77;;;2.60;;
76689;SDS011;70102;44.506;0.220;2023-06-22T16:11:16;3.60;;;2.40;;
76689;SDS011;70102;44.506;0.220;2023-06-22T16:16:48;4.87;;;2.30;;
76689;SDS011;70102;44.506;0.220;2023-06-22T16:22:21;3.70;;;2.37;;
76689;SDS011;70102;44.506;0.220;2023-06-22T16:27:54;4.17;;;2.10;;
76689;SDS011;70102;44.506;0.220;2023-06-22T16:33:28;4.40;;;2.50;;
76689;SDS011;70102;44.506;0.220;2023-06-22T16:39:00;2.90;;;1.80;;
76689;SDS011;70102;44.506;0.220;2023-06-22T16:44:32;7.57;;;2.30;;
76689;SDS011;70102;44.506;0.220;2023-06-22T16:50:05;6.53;;;2.60;;
76689;SDS011;70102;44.506;0.220;2023-06-22T16:55:38;4.03;;;1.87;;
76689;SDS011;70102;44.506;0.220;2023-06-22T17:01:11;2.70;;;1.97;;
76689;SDS011;70102;44.506;0.220;2023-06-22T17:06:45;2.03;;;1.77;;
76689;SDS011;70102;44.506;0.220;2023-06-22T17:17:49;5.37;;;2.30;;
76689;SDS011;70102;44.506;0.220;2023-06-22T17:23:22;2.17;;;1.97;;
76689;SDS011;70102;44.506;0.220;2023-06-22T17:28:54;2.87;;;2.53;;
76689;SDS011;70102;44.506;0.220;2023-06-22T17:34:26;3.73;;;2.80;;
76689;SDS011;70102;44.506;0.220;2023-06-22T17:39:59;4.97;;;2.60;;
76689;SDS011;70102;44.506;0.220;2023-06-22T17:45:32;3.30;;;1.90;;
76689;SDS011;70102;44.506;0.220;2023-06-22T17:51:05;4.53;;;2.50;;
76689;SDS011;70102;44.506;0.220;2023-06-22T17:56:37;3.57;;;2.10;;
76689;SDS011;70102;44.506;0.220;2023-06-22T18:02:11;4.27;;;2.53;;
76689;SDS011;70102;44.506;0.220;2023-06-22T18:07:43;3.03;;;2.30;;
76689;SDS011;70102;44.506;0.220;2023-06-22T18:13:16;5.47;;;2.70;;
76689;SDS011;70102;44.506;0.220;2023-06-22T18:18:48;3.97;;;2.50;;
76689;SDS011;70102;44.506;0.220;2023-06-22T18:24:21;4.33;;;2.43;;
76689;SDS011;70102;44.506;0.220;2023-06-22T18:29:54;2.60;;;2.03;;
76689;SDS011;70102;44.506;0.220;2023-06-22T18:35:28;5.30;;;2.77;;
76689;SDS011;70102;44.506;0.220;2023-06-22T18:41:02;3.53;;;2.87;;
76689;SDS011;70102;44.506;0.220;2023-06-22T18:46:34;3.67;;;2.20;;
76689;SDS011;70102;44.506;0.220;2023-06-22T18:52:12;4.80;;;3.60;;
76689;SDS011;70102;44.506;0.220;2023-06-22T18:57:40;6.40;;;2.77;;
76689;SDS011;70102;44.506;0.220;2023-06-22T19:14:18;3.70;;;3.40;;
76689;SDS011;70102;44.506;0.220;2023-06-22T19:25:25;4.70;;;3.47;;
76689;SDS011;70102;44.506;0.220;2023-06-22T19:30:56;5.03;;;3.70;;
76689;SDS011;70102;44.506;0.220;2023-06-22T19:36:30;7.20;;;4.10;;
76689;SDS011;70102;44.506;0.220;2023-06-22T19:42:02;4.53;;;3.43;;
76689;SDS011;70102;44.506;0.220;2023-06-22T19:47:35;4.77;;;3.80;;
76689;SDS011;70102;44.506;0.220;2023-06-22T19:53:08;8.47;;;4.10;;
76689;SDS011;70102;44.506;0.220;2023-06-22T19:58:41;6.23;;;3.93;;
76689;SDS011;70102;44.506;0.220;2023-06-22T20:04:15;4.43;;;3.60;;
76689;SDS011;70102;44.506;0.220;2023-06-22T20:15:21;10.20;;;3.63;;
76689;SDS011;70102;44.506;0.220;2023-06-22T20:20:54;9.30;;;4.03;;
76689;SDS011;70102;44.506;0.220;2023-06-22T20:26:26;7.23;;;3.83;;
76689;SDS011;70102;44.506;0.220;2023-06-22T20:32:02;8.27;;;4.37;;
76689;SDS011;70102;44.506;0.220;2023-06-22T20:37:33;4.27;;;3.50;;
76689;SDS011;70102;44.506;0.220;2023-06-22T20:48:41;7.23;;;4.17;;
76689;SDS011;70102;44.506;0.220;2023-06-22T20:54:14;5.20;;;3.87;;
76689;SDS011;70102;44.506;0.220;2023-06-22T20:59:47;6.17;;;3.70;;
76689;SDS011;70102;44.506;0.220;2023-06-22T21:05:21;5.40;;;3.43;;
76689;SDS011;70102;44.506;0.220;2023-06-22T21:10:53;7.43;;;3.83;;
76689;SDS011;70102;44.506;0.220;2023-06-22T21:16:25;8.50;;;3.93;;
76689;SDS011;70102;44.506;0.220;2023-06-22T21:21:59;5.17;;;3.70;;
76689;SDS011;70102;44.506;0.220;2023-06-22T21:27:31;7.77;;;3.93;;
76689;SDS011;70102;44.506;0.220;2023-06-22T21:33:07;6.10;;;3.37;;
76689;SDS011;70102;44.506;0.220;2023-06-22T21:38:36;5.30;;;3.67;;
76689;SDS011;70102;44.506;0.220;2023-06-22T21:44:09;13.90;;;4.50;;
76689;SDS011;70102;44.506;0.220;2023-06-22T21:49:42;10.77;;;5.37;;
76689;SDS011;70102;44.506;0.220;2023-06-22T21:55:15;5.50;;;4.10;;
76689;SDS011;70102;44.506;0.220;2023-06-22T22:00:48;10.33;;;4.17;;
76689;SDS011;70102;44.506;0.220;2023-06-22T22:06:22;5.43;;;4.13;;
76689;SDS011;70102;44.506;0.220;2023-06-22T22:11:56;5.53;;;3.87;;
76689;SDS011;70102;44.506;0.220;2023-06-22T22:17:28;8.90;;;5.17;;
76689;SDS011;70102;44.506;0.220;2023-06-22T22:23:02;7.07;;;4.10;;
76689;SDS011;70102;44.506;0.220;2023-06-22T22:28:35;11.37;;;4.50;;
76689;SDS011;70102;44.506;0.220;2023-06-22T22:34:09;7.40;;;4.07;;
76689;SDS011;70102;44.506;0.220;2023-06-22T22:39:42;7.33;;;4.23;;
76689;SDS011;70102;44.506;0.220;2023-06-22T22:45:15;10.10;;;4.57;;
76689;SDS011;70102;44.506;0.220;2023-06-22T22:50:48;11.03;;;6.43;;
76689;SDS011;70102;44.506;0.220;2023-06-22T22:56:21;12.93;;;4.93;;
76689;SDS011;70102;44.506;0.220;2023-06-22T23:01:54;9.37;;;4.87;;
76689;SDS011;70102;44.506;0.220;2023-06-22T23:07:27;12.07;;;5.33;;
76689;SDS011;70102;44.506;0.220;2023-06-22T23:13:01;8.43;;;5.17;;
76689;SDS011;70102;44.506;0.220;2023-06-22T23:18:35;7.23;;;5.20;;
76689;SDS011;70102;44.506;0.220;2023-06-22T23:24:07;13.03;;;5.73;;
76689;SDS011;70102;44.506;0.220;2023-06-22T23:29:41;11.47;;;5.53;;
76689;SDS011;70102;44.506;0.220;2023-06-22T23:35:13;9.70;;;4.77;;
76689;SDS011;70102;44.506;0.220;2023-06-22T23:40:45;10.63;;;5.57;;
76689;SDS011;70102;44.506;0.220;2023-06-22T23:46:17;10.90;;;5.33;;
76689;SDS011;70102;44.506;0.220;2023-06-22T23:51:49;11.10;;;5.33;;
76689;SDS011;70102;44.506;0.220;2023-06-22T23:57:23;9.93;;;5.17;;
